createdAt,value
2019-05-29T00:00:15.486Z,55.3
2019-05-29T00:03:15.506Z,55.8
2019-05-29T00:06:15.030Z,55.7
2019-05-29T00:09:15.510Z,55.6
2019-05-29T00:12:19.657Z,55.6
2019-05-29T00:15:15.718Z,55.7
2019-05-29T00:18:15.187Z,55.5
2019-05-29T00:21:15.896Z,55.3
2019-05-29T00:24:15.274Z,55.5
2019-05-29T00:27:15.730Z,55.9
2019-05-29T00:30:15.238Z,55.4
2019-05-29T00:33:15.778Z,56.1
2019-05-29T00:36:16.503Z,55.9
2019-05-29T00:39:15.030Z,55.3
2019-05-29T00:42:15.999Z,55.5
2019-05-29T00:45:15.606Z,55.5
2019-05-29T00:48:20.231Z,55.5
2019-05-29T00:51:15.809Z,55.2
2019-05-29T00:54:16.451Z,55.4
2019-05-29T00:57:15.392Z,55.6
2019-05-29T01:00:15.824Z,55.2
2019-05-29T01:03:15.867Z,55.0
2019-05-29T01:06:16.083Z,54.7
2019-05-29T01:09:16.470Z,54.9
2019-05-29T01:12:15.033Z,54.7
2019-05-29T01:15:15.501Z,54.7
2019-05-29T01:18:15.787Z,55.1
2019-05-29T01:21:15.967Z,54.3
2019-05-29T01:24:16.306Z,54.9
2019-05-29T01:27:16.812Z,54.9
2019-05-29T01:30:15.516Z,55.0
2019-05-29T01:33:17.520Z,54.6
2019-05-29T01:36:15.922Z,54.4
2019-05-29T01:39:15.342Z,54.3
2019-05-29T01:42:15.896Z,55.2
2019-05-29T01:45:15.464Z,55.4
2019-05-29T01:48:15.381Z,55.2
2019-05-29T01:51:15.839Z,54.4
2019-05-29T01:54:15.521Z,54.3
2019-05-29T01:57:15.762Z,54.4
2019-05-29T02:00:15.692Z,54.6
2019-05-29T02:03:15.783Z,55.3
2019-05-29T02:06:15.819Z,54.8
2019-05-29T02:09:15.949Z,55.4
2019-05-29T02:12:16.274Z,54.7
2019-05-29T02:15:26.031Z,54.3
2019-05-29T02:18:15.269Z,54.3
2019-05-29T02:21:15.959Z,54.7
2019-05-29T02:24:15.510Z,55.0
2019-05-29T02:27:15.029Z,54.0
2019-05-29T02:30:17.876Z,54.4
2019-05-29T02:33:15.217Z,54.1
2019-05-29T02:36:15.747Z,54.5
2019-05-29T02:39:15.293Z,55.0
2019-05-29T02:42:14.971Z,55.0
2019-05-29T02:45:15.878Z,54.7
2019-05-29T02:48:15.589Z,54.4
2019-05-29T02:51:14.934Z,54.3
2019-05-29T02:54:15.241Z,55.0
2019-05-29T02:57:15.332Z,54.7
2019-05-29T03:00:15.039Z,54.2
2019-05-29T03:03:15.776Z,54.9
2019-05-29T03:06:15.453Z,54.3
2019-05-29T03:09:15.782Z,54.2
2019-05-29T03:12:15.482Z,55.0
2019-05-29T03:15:14.964Z,54.7
2019-05-29T03:18:15.039Z,54.8
2019-05-29T03:21:15.476Z,54.6
2019-05-29T03:24:15.022Z,54.3
2019-05-29T03:27:15.131Z,54.5
2019-05-29T03:30:15.151Z,54.2
2019-05-29T03:33:14.898Z,54.7
2019-05-29T03:36:15.418Z,54.8
2019-05-29T03:39:15.182Z,54.8
2019-05-29T03:42:15.114Z,54.8
2019-05-29T03:45:15.859Z,55.5
2019-05-29T03:48:14.928Z,55.6
2019-05-29T03:51:15.253Z,55.2
2019-05-29T03:54:15.010Z,55.8
2019-05-29T03:57:15.400Z,54.9
2019-05-29T04:00:15.699Z,55.3
2019-05-29T04:03:15.665Z,55.6
2019-05-29T04:06:15.129Z,55.4
2019-05-29T04:09:15.441Z,56.5
2019-05-29T04:12:18.989Z,57.3
2019-05-29T04:15:15.279Z,57.2
2019-05-29T04:18:19.404Z,57.3
2019-05-29T04:21:15.481Z,57.6
2019-05-29T04:24:15.031Z,57.2
2019-05-29T04:27:15.499Z,56.6
2019-05-29T04:30:15.438Z,56.5
2019-05-29T04:33:15.474Z,56.2
2019-05-29T04:36:15.440Z,56.0
2019-05-29T04:39:15.576Z,55.8
2019-05-29T04:42:15.691Z,54.8
2019-05-29T04:45:15.543Z,54.8
2019-05-29T04:48:15.303Z,54.6
2019-05-29T04:51:15.287Z,54.0
2019-05-29T04:54:15.226Z,53.7
2019-05-29T04:57:15.611Z,53.8
2019-05-29T05:00:15.425Z,53.3
2019-05-29T05:03:15.330Z,52.8
2019-05-29T05:06:15.605Z,52.7
2019-05-29T05:09:15.535Z,52.4
2019-05-29T05:12:15.738Z,52.2
2019-05-29T05:15:15.165Z,51.8
2019-05-29T05:18:14.997Z,51.1
2019-05-29T05:21:15.385Z,50.5
2019-05-29T05:24:15.345Z,49.8
2019-05-29T05:27:15.770Z,49.4
2019-05-29T05:30:15.379Z,48.7
2019-05-29T05:33:14.913Z,48.9
2019-05-29T05:36:15.587Z,48.7
2019-05-29T05:39:15.105Z,48.6
2019-05-29T05:42:14.995Z,48.0
2019-05-29T05:45:15.341Z,48.6
2019-05-29T05:48:15.023Z,48.5
2019-05-29T05:51:15.095Z,47.8
2019-05-29T05:54:15.459Z,47.7
2019-05-29T05:57:15.562Z,46.8
2019-05-29T06:00:15.783Z,46.8
2019-05-29T06:03:15.359Z,46.3
2019-05-29T06:06:15.047Z,46.0
2019-05-29T06:09:15.340Z,45.8
2019-05-29T06:12:15.890Z,45.4
2019-05-29T06:15:15.477Z,45.4
2019-05-29T06:18:20.971Z,45.4
2019-05-29T06:21:15.640Z,45.3
2019-05-29T06:24:15.253Z,45.1
2019-05-29T06:27:15.685Z,44.7
2019-05-29T06:30:15.141Z,44.5
2019-05-29T06:33:15.895Z,44.0
2019-05-29T06:36:15.453Z,42.5
2019-05-29T06:39:14.999Z,43.0
2019-05-29T06:42:15.642Z,42.7
2019-05-29T06:45:15.237Z,42.3
2019-05-29T06:48:15.458Z,41.1
2019-05-29T06:51:15.777Z,40.4
2019-05-29T06:54:15.343Z,38.9
2019-05-29T06:57:15.690Z,38.2
2019-05-29T07:00:34.014Z,37.4
2019-05-29T07:03:15.562Z,37.5
2019-05-29T07:06:15.075Z,36.8
2019-05-29T07:09:15.523Z,36.5
2019-05-29T07:12:14.975Z,35.5
2019-05-29T07:15:15.480Z,35.3
2019-05-29T07:18:15.258Z,33.3
2019-05-29T07:21:15.935Z,31.7
2019-05-29T07:24:15.596Z,28.7
2019-05-29T07:27:15.053Z,25.5
2019-05-29T07:30:15.773Z,23.0
2019-05-29T07:33:15.449Z,20.3
2019-05-29T07:36:15.058Z,18.7
2019-05-29T07:39:15.790Z,17.5
2019-05-29T07:42:15.360Z,13.7
2019-05-29T07:45:15.799Z,13.6
2019-05-29T07:48:15.452Z,13.7
2019-05-29T07:51:15.008Z,13.4
2019-05-29T07:54:15.626Z,12.6
2019-05-29T07:57:14.989Z,12.9
2019-05-29T08:00:15.466Z,13.4
2019-05-29T08:03:15.746Z,14.2
2019-05-29T08:06:15.261Z,14.3
2019-05-29T08:09:15.750Z,15.1
2019-05-29T08:12:15.235Z,15.8
2019-05-29T08:15:15.144Z,16.4
2019-05-29T08:18:15.581Z,17.9
2019-05-29T08:21:15.944Z,19.6
2019-05-29T08:24:15.248Z,20.9
2019-05-29T08:27:15.638Z,21.8
2019-05-29T08:30:15.150Z,21.4
2019-05-29T08:33:15.672Z,19.3
2019-05-29T08:36:15.306Z,16.5
2019-05-29T08:39:32.944Z,17.2
2019-05-29T08:42:23.034Z,16.9
2019-05-29T08:45:15.550Z,16.9
2019-05-29T08:48:14.928Z,17.9
2019-05-29T08:51:15.148Z,20.1
2019-05-29T08:54:24.023Z,22.2
2019-05-29T08:57:15.190Z,23.1
2019-05-29T09:00:15.845Z,22.9
2019-05-29T09:03:15.652Z,22.1
2019-05-29T09:06:15.097Z,19.6
2019-05-29T09:09:15.535Z,19.4
2019-05-29T09:12:14.996Z,16.5
2019-05-29T09:15:20.869Z,18.6
2019-05-29T09:18:15.235Z,19.5
2019-05-29T09:21:15.809Z,19.9
2019-05-29T09:24:16.245Z,19.7
2019-05-29T09:27:16.797Z,19.6
2019-05-29T09:30:16.666Z,19.6
2019-05-29T09:33:18.003Z,20.3
2019-05-29T09:36:16.768Z,19.8
2019-05-29T09:39:16.692Z,20.1
2019-05-29T09:42:17.405Z,21.5
2019-05-29T09:45:16.621Z,22.3
2019-05-29T09:48:20.846Z,22.2
2019-05-29T09:51:21.118Z,22.3
2019-05-29T09:54:15.494Z,22.5
2019-05-29T09:57:15.509Z,23.4
2019-05-29T10:00:15.212Z,22.8
2019-05-29T10:03:15.874Z,23.1
2019-05-29T10:06:15.547Z,22.3
2019-05-29T10:09:15.122Z,21.4
2019-05-29T10:12:15.710Z,19.4
2019-05-29T10:15:15.470Z,19.2
2019-05-29T10:18:31.344Z,19.0
2019-05-29T10:21:15.695Z,17.8
2019-05-29T10:24:15.557Z,18.3
2019-05-29T10:27:19.976Z,17.9
2019-05-29T10:30:15.684Z,18.1
2019-05-29T10:33:15.756Z,17.0
2019-05-29T10:36:15.498Z,17.2
2019-05-29T10:39:15.051Z,17.6
2019-05-29T10:42:15.689Z,18.5
2019-05-29T10:45:15.369Z,17.9
2019-05-29T10:48:20.195Z,18.2
2019-05-29T10:51:15.847Z,17.4
2019-05-29T10:54:15.587Z,17.6
2019-05-29T10:57:15.148Z,17.8
2019-05-29T11:00:15.097Z,18.4
2019-05-29T11:03:15.764Z,18.5
2019-05-29T11:06:15.518Z,18.5
2019-05-29T11:09:14.985Z,19.0
2019-05-29T11:12:15.595Z,16.5
2019-05-29T11:15:21.553Z,16.6
2019-05-29T11:18:15.678Z,17.0
2019-05-29T11:21:15.283Z,17.4
2019-05-29T11:24:15.365Z,16.7
2019-05-29T11:27:15.803Z,18.4
2019-05-29T11:30:15.466Z,18.9
2019-05-29T11:33:15.942Z,19.7
2019-05-29T11:36:15.627Z,21.0
2019-05-29T11:39:15.175Z,21.4
2019-05-29T11:42:26.894Z,22.5
2019-05-29T11:45:15.177Z,23.0
2019-05-29T11:48:15.809Z,24.0
2019-05-29T11:51:15.789Z,24.1
2019-05-29T11:54:15.357Z,24.2
2019-05-29T11:57:15.919Z,24.8
2019-05-29T12:00:20.065Z,24.5
2019-05-29T12:03:15.456Z,23.6
2019-05-29T12:06:15.326Z,23.3
2019-05-29T12:09:31.420Z,24.0
2019-05-29T12:12:15.337Z,24.0
2019-05-29T12:15:18.570Z,24.2
2019-05-29T12:18:23.566Z,23.5
2019-05-29T12:21:15.365Z,24.2
2019-05-29T12:24:15.908Z,24.7
2019-05-29T12:27:15.497Z,24.7
2019-05-29T12:30:15.093Z,25.1
2019-05-29T12:33:14.934Z,24.9
2019-05-29T12:36:15.055Z,24.7
2019-05-29T12:39:15.750Z,24.8
2019-05-29T12:42:15.663Z,24.3
2019-05-29T12:45:15.424Z,24.2
2019-05-29T12:48:16.048Z,23.6
2019-05-29T12:51:15.156Z,24.1
2019-05-29T12:54:15.858Z,24.1
2019-05-29T12:57:15.498Z,24.1
2019-05-29T13:00:15.359Z,24.4
2019-05-29T13:03:15.486Z,24.1
2019-05-29T13:06:15.382Z,23.6
2019-05-29T13:09:14.950Z,24.2
2019-05-29T13:12:15.741Z,25.0
2019-05-29T13:15:15.245Z,26.1
2019-05-29T13:18:15.292Z,25.0
2019-05-29T13:21:15.893Z,25.1
2019-05-29T13:24:15.447Z,25.0
2019-05-29T13:27:15.135Z,24.9
2019-05-29T13:30:15.669Z,25.3
2019-05-29T13:33:15.707Z,25.2
2019-05-29T13:36:15.359Z,25.3
2019-05-29T13:39:15.265Z,26.1
2019-05-29T13:42:15.787Z,26.3
2019-05-29T13:45:18.421Z,26.5
2019-05-29T13:48:15.516Z,26.4
2019-05-29T13:51:15.216Z,26.4
2019-05-29T13:54:17.931Z,26.2
2019-05-29T13:57:15.067Z,26.4
2019-05-29T14:00:32.133Z,26.0
2019-05-29T14:03:15.316Z,25.5
2019-05-29T14:06:16.006Z,25.2
2019-05-29T14:09:15.877Z,25.7
2019-05-29T14:12:17.019Z,25.2
2019-05-29T14:15:15.664Z,24.2
2019-05-29T14:18:15.350Z,24.3
2019-05-29T14:21:15.041Z,24.5
2019-05-29T14:24:28.800Z,25.0
2019-05-29T14:27:15.023Z,25.1
2019-05-29T14:30:15.723Z,26.1
2019-05-29T14:33:15.420Z,26.0
2019-05-29T14:36:15.112Z,26.2
2019-05-29T14:39:15.823Z,26.6
2019-05-29T14:42:15.561Z,26.8
2019-05-29T14:45:15.466Z,26.4
2019-05-29T14:48:15.195Z,26.7
2019-05-29T14:51:14.952Z,26.5
2019-05-29T14:54:15.576Z,26.6
2019-05-29T14:57:24.818Z,26.1
2019-05-29T15:00:21.073Z,26.5
2019-05-29T15:03:15.434Z,26.5
2019-05-29T15:06:15.083Z,27.0
2019-05-29T15:09:15.820Z,26.9
2019-05-29T15:12:15.507Z,27.2
2019-05-29T15:15:16.468Z,27.3
2019-05-29T15:18:18.823Z,27.0
2019-05-29T15:21:15.426Z,26.5
2019-05-29T15:24:15.838Z,26.4
2019-05-29T15:27:16.226Z,26.2
2019-05-29T15:30:22.018Z,26.0
2019-05-29T15:33:15.066Z,25.9
2019-05-29T15:36:16.860Z,25.9
2019-05-29T15:39:16.764Z,25.6
2019-05-29T15:42:15.125Z,25.3
2019-05-29T15:45:15.989Z,25.3
2019-05-29T15:48:17.239Z,25.0
2019-05-29T15:51:15.327Z,25.7
2019-05-29T15:54:15.321Z,26.3
2019-05-29T15:57:15.309Z,26.5
2019-05-29T16:00:15.599Z,26.4
2019-05-29T16:03:15.674Z,26.5
2019-05-29T16:06:15.977Z,26.6
2019-05-29T16:09:16.324Z,26.5
2019-05-29T16:12:15.131Z,26.7
2019-05-29T16:15:17.246Z,27.0
2019-05-29T16:18:22.776Z,26.9
2019-05-29T16:21:16.526Z,27.2
2019-05-29T16:24:16.724Z,27.7
2019-05-29T16:27:16.045Z,27.4
2019-05-29T16:30:15.922Z,27.4
2019-05-29T16:33:15.129Z,27.6
2019-05-29T16:36:16.541Z,27.0
2019-05-29T16:39:15.806Z,27.5
2019-05-29T16:42:15.909Z,27.9
2019-05-29T16:45:16.329Z,28.3
2019-05-29T16:48:16.405Z,27.8
2019-05-29T16:51:15.186Z,27.5
2019-05-29T16:54:17.173Z,27.4
2019-05-29T16:57:15.292Z,27.4
2019-05-29T17:00:15.664Z,27.3
2019-05-29T17:03:15.953Z,27.4
2019-05-29T17:06:15.817Z,27.1
2019-05-29T17:09:16.353Z,27.6
2019-05-29T17:12:16.252Z,27.7
2019-05-29T17:15:15.275Z,28.2
2019-05-29T17:18:16.434Z,28.2
2019-05-29T17:21:16.425Z,28.7
2019-05-29T17:24:16.666Z,29.4
2019-05-29T17:27:16.526Z,30.1
2019-05-29T17:30:16.568Z,29.8
2019-05-29T17:33:15.289Z,30.3
2019-05-29T17:36:16.844Z,30.4
2019-05-29T17:39:17.018Z,30.8
2019-05-29T17:42:16.066Z,30.0
2019-05-29T17:45:19.605Z,30.1
2019-05-29T17:48:15.472Z,30.2
2019-05-29T17:51:15.403Z,30.2
2019-05-29T17:54:20.114Z,30.6
2019-05-29T17:57:16.666Z,31.5
2019-05-29T18:00:15.937Z,31.9
2019-05-29T18:03:16.074Z,32.4
2019-05-29T18:06:16.307Z,32.4
2019-05-29T18:09:17.063Z,32.9
2019-05-29T18:12:17.099Z,33.2
2019-05-29T18:15:15.237Z,33.0
2019-05-29T18:18:15.103Z,33.0
